Time;durP1;ratioP1;P1;durP2;ratioP2;P2;SDS_P1;SDS_P2;PMS_P1;PMS_P2;Temp;Humidity;BMP_temperature;BMP_pressure;BME280_temperature;BME280_humidity;BME280_pressure;Samples;Min_cycle;Max_cycle;Signal;HPM_P1;HPM_P2
2022/03/30 00:01:22;;;;;;;89.38;39.40;;;5.00;82.50;;;;;;4972841;28;20031;-70
2022/03/30 00:03:48;;;;;;;90.18;40.60;;;5.00;82.70;;;;;;4972310;28;20482;-70
2022/03/30 00:06:14;;;;;;;82.28;40.20;;;5.00;82.90;;;;;;4973041;28;20031;-68
2022/03/30 00:08:39;;;;;;;95.65;42.58;;;5.00;82.80;;;;;;4969934;28;20042;-68
2022/03/30 00:11:05;;;;;;;82.97;38.90;;;4.90;83.20;;;;;;4975956;28;20105;-70
2022/03/30 00:13:30;;;;;;;86.97;38.33;;;4.90;83.50;;;;;;4974275;28;20048;-71
2022/03/30 00:15:56;;;;;;;85.95;39.83;;;4.80;83.70;;;;;;4971812;28;20023;-71
2022/03/30 00:18:22;;;;;;;92.68;40.42;;;4.80;83.70;;;;;;4953257;28;20023;-71
2022/03/30 00:20:50;;;;;;;79.63;38.28;;;4.90;83.90;;;;;;4971474;28;20509;-71
2022/03/30 00:23:15;;;;;;;86.30;40.72;;;4.90;83.70;;;;;;4971864;28;20586;-71
2022/03/30 00:25:41;;;;;;;92.88;41.95;;;4.80;83.90;;;;;;4971313;28;20134;-71
2022/03/30 00:28:08;;;;;;;94.68;42.08;;;4.80;84.00;;;;;;4970753;28;20034;-69
2022/03/30 00:30:33;;;;;;;91.70;42.50;;;4.80;84.10;;;;;;4953975;28;20528;-68
2022/03/30 00:32:59;;;;;;;81.95;38.22;;;4.90;83.80;;;;;;4971534;28;20090;-68
2022/03/30 00:35:25;;;;;;;90.97;41.40;;;4.80;83.80;;;;;;4997328;23;20173;-67
2022/03/30 00:37:50;;;;;;;88.18;39.15;;;4.80;83.70;;;;;;5044442;28;20051;-68
2022/03/30 00:40:16;;;;;;;93.90;42.50;;;4.80;84.00;;;;;;5049987;28;20086;-67
2022/03/30 00:42:42;;;;;;;88.18;39.40;;;4.70;84.10;;;;;;5032483;28;20415;-68
2022/03/30 00:45:12;;;;;;;85.25;39.10;;;4.80;84.10;;;;;;5050641;28;20029;-67
2022/03/30 00:47:38;;;;;;;84.25;39.50;;;4.80;84.20;;;;;;5030911;28;20022;-68
2022/03/30 00:50:07;;;;;;;83.38;39.03;;;4.70;84.20;;;;;;5049801;28;20045;-69
2022/03/30 00:52:34;;;;;;;87.53;38.28;;;4.70;84.10;;;;;;5032284;28;20029;-69
2022/03/30 00:55:00;;;;;;;89.18;41.20;;;4.70;83.70;;;;;;5050810;28;20507;-69
2022/03/30 00:57:27;;;;;;;86.22;39.50;;;4.60;83.90;;;;;;5048767;28;20029;-70
2022/03/30 00:59:53;;;;;;;81.50;37.40;;;4.60;84.20;;;;;;5049895;28;20021;-70
2022/03/30 01:02:20;;;;;;;85.05;38.30;;;4.60;84.30;;;;;;5031603;28;20017;-70
2022/03/30 01:04:46;;;;;;;86.97;40.15;;;4.60;84.20;;;;;;5049284;28;20032;-70
2022/03/30 01:07:13;;;;;;;80.53;38.05;;;4.60;84.30;;;;;;5049092;28;20025;-70
2022/03/30 01:09:39;;;;;;;88.35;40.03;;;4.60;84.10;;;;;;5031268;28;20021;-68
2022/03/30 01:12:07;;;;;;;84.68;38.70;;;4.60;84.10;;;;;;5049517;28;20024;-69
2022/03/30 01:14:34;;;;;;;84.20;37.90;;;4.60;84.10;;;;;;5049647;28;20032;-69
2022/03/30 01:16:59;;;;;;;83.95;38.17;;;4.70;84.30;;;;;;5051897;28;20552;-69
2022/03/30 01:19:29;;;;;;;81.50;39.75;;;4.70;84.10;;;;;;5052610;28;20104;-69
2022/03/30 01:21:55;;;;;;;84.05;37.25;;;4.80;84.20;;;;;;5053428;28;20049;-69
2022/03/30 01:24:21;;;;;;;84.90;37.80;;;4.80;83.80;;;;;;5053249;28;20052;-69
2022/03/30 01:26:47;;;;;;;80.10;37.90;;;4.90;83.80;;;;;;5053417;28;20521;-69
2022/03/30 01:34:42;;;;;;;77.20;36.30;;;5.00;83.20;;;;;;5053674;28;20090;-68
2022/03/30 01:37:11;;;;;;;78.63;38.22;;;5.00;82.60;;;;;;5052186;28;20036;-68
2022/03/30 01:39:37;;;;;;;80.13;37.78;;;5.10;82.50;;;;;;5052606;28;20051;-68
2022/03/30 01:42:03;;;;;;;79.95;36.72;;;5.10;82.50;;;;;;5053099;28;20538;-68
2022/03/30 01:44:28;;;;;;;77.40;38.20;;;5.20;82.40;;;;;;5052816;28;20056;-68
2022/03/30 01:46:54;;;;;;;80.07;38.92;;;5.20;82.10;;;;;;5052914;28;20031;-68
2022/03/30 01:49:21;;;;;;;75.72;36.85;;;5.40;81.90;;;;;;5052228;28;20502;-69
2022/03/30 01:51:58;;;;;;;82.25;38.15;;;5.40;81.00;;;;;;5034633;28;20032;-69
2022/03/30 01:54:26;;;;;;;77.72;36.97;;;5.40;81.10;;;;;;5053456;28;20498;-68
2022/03/30 01:56:54;;;;;;;79.03;37.88;;;5.40;81.10;;;;;;5035143;28;20079;-69
2022/03/30 01:59:20;;;;;;;66.68;35.88;;;5.50;81.20;;;;;;5034422;28;20044;-70
2022/03/30 02:01:46;;;;;;;74.97;37.13;;;5.50;80.60;;;;;;5052687;28;20053;-68
2022/03/30 02:04:12;;;;;;;68.68;34.22;;;5.40;80.70;;;;;;5052848;28;20487;-68
2022/03/30 02:06:39;;;;;;;79.53;37.88;;;5.30;80.80;;;;;;5052634;28;20025;-68
2022/03/30 02:09:08;;;;;;;71.60;34.47;;;5.30;81.10;;;;;;5052089;28;20029;-68
2022/03/30 02:11:35;;;;;;;75.93;36.95;;;5.20;81.00;;;;;;5034210;28;20080;-68
2022/03/30 02:14:01;;;;;;;76.43;37.28;;;5.20;81.20;;;;;;5052721;28;20028;-67
2022/03/30 02:16:27;;;;;;;74.78;38.45;;;5.30;81.10;;;;;;5034778;28;20146;-67
2022/03/30 02:18:53;;;;;;;76.55;35.85;;;5.30;80.80;;;;;;5052086;28;20125;-67
2022/03/30 02:21:19;;;;;;;72.68;35.92;;;5.30;80.80;;;;;;5052718;28;20507;-68
2022/03/30 02:23:46;;;;;;;71.18;37.33;;;5.40;80.60;;;;;;5052174;28;20114;-69
2022/03/30 02:26:13;;;;;;;67.68;33.92;;;5.40;80.60;;;;;;5052106;28;20021;-68
2022/03/30 02:28:51;;;;;;;77.53;35.88;;;5.30;80.80;;;;;;5051952;28;20025;-68
2022/03/30 02:31:18;;;;;;;75.88;36.22;;;5.30;80.70;;;;;;5052492;28;20017;-68
2022/03/30 02:33:44;;;;;;;73.40;35.72;;;5.30;80.80;;;;;;5052115;28;20151;-68
2022/03/30 02:36:10;;;;;;;73.75;36.40;;;5.30;80.90;;;;;;5052124;28;20036;-68
2022/03/30 02:38:36;;;;;;;74.63;36.67;;;5.30;80.80;;;;;;5045255;28;20033;-70
2022/03/30 02:41:03;;;;;;;70.95;35.92;;;5.30;80.70;;;;;;5052769;28;20396;-68
2022/03/30 02:43:28;;;;;;;69.88;35.25;;;5.20;80.80;;;;;;5038453;28;20060;-68
2022/03/30 02:45:54;;;;;;;78.03;35.85;;;5.20;80.80;;;;;;5046746;28;20162;-68
2022/03/30 02:48:22;;;;;;;76.72;36.17;;;5.10;80.90;;;;;;5051221;28;20133;-68
2022/03/30 02:50:49;;;;;;;73.10;36.33;;;5.20;80.80;;;;;;5052065;28;20043;-68
2022/03/30 02:53:16;;;;;;;73.95;35.63;;;5.20;80.70;;;;;;5051803;28;20404;-68
2022/03/30 02:55:42;;;;;;;79.22;35.88;;;5.20;80.90;;;;;;5051589;28;20032;-69
2022/03/30 02:58:09;;;;;;;73.38;34.83;;;5.20;81.00;;;;;;5051208;28;20473;-68
2022/03/30 03:00:35;;;;;;;67.53;34.45;;;5.20;80.50;;;;;;5051619;28;20074;-67
2022/03/30 03:03:02;;;;;;;81.90;37.33;;;5.20;80.80;;;;;;5051758;28;20540;-67
2022/03/30 03:05:32;;;;;;;73.68;36.15;;;5.20;80.90;;;;;;5051246;28;20059;-67
2022/03/30 03:08:01;;;;;;;68.63;33.10;;;5.30;81.10;;;;;;5050864;28;20028;-69
2022/03/30 03:10:28;;;;;;;69.50;35.00;;;5.40;80.60;;;;;;5033594;28;20017;-69
2022/03/30 03:12:54;;;;;;;70.53;34.47;;;5.40;80.60;;;;;;5051965;28;20029;-69
2022/03/30 03:15:20;;;;;;;71.15;35.33;;;5.40;80.40;;;;;;5051697;28;20096;-69
2022/03/30 03:17:45;;;;;;;69.53;35.20;;;5.50;80.30;;;;;;5050241;28;20112;-69
2022/03/30 03:20:11;;;;;;;73.22;37.45;;;5.50;80.20;;;;;;5051183;28;20024;-69
2022/03/30 03:22:38;;;;;;;71.53;34.22;;;5.50;79.90;;;;;;5051168;28;20032;-69
2022/03/30 03:25:04;;;;;;;73.82;36.65;;;5.40;80.10;;;;;;5033489;28;20037;-69
2022/03/30 03:27:30;;;;;;;73.57;37.95;;;5.40;80.40;;;;;;5050319;28;20025;-68
2022/03/30 03:29:56;;;;;;;74.65;35.63;;;5.50;80.10;;;;;;5051352;28;20028;-69
2022/03/30 03:32:21;;;;;;;69.10;36.20;;;5.50;79.90;;;;;;5050988;28;20078;-68
2022/03/30 03:34:47;;;;;;;72.78;37.67;;;5.50;80.00;;;;;;5051118;28;20066;-68
2022/03/30 03:37:13;;;;;;;74.05;37.15;;;5.50;80.20;;;;;;5045849;28;20033;-68
2022/03/30 03:39:38;;;;;;;74.18;37.47;;;5.50;80.00;;;;;;5046323;28;20466;-68
2022/03/30 03:42:04;;;;;;;69.90;35.63;;;5.50;80.00;;;;;;5033990;28;20065;-68
2022/03/30 03:44:29;;;;;;;65.95;35.13;;;5.60;79.80;;;;;;5044220;28;20111;-69
2022/03/30 03:46:55;;;;;;;72.00;35.38;;;5.60;79.60;;;;;;5050915;28;20079;-68
2022/03/30 03:49:21;;;;;;;73.60;36.17;;;5.70;79.60;;;;;;5049932;28;20017;-69
2022/03/30 03:51:47;;;;;;;70.13;36.80;;;5.60;79.50;;;;;;5050936;28;20017;-69
2022/03/30 03:54:12;;;;;;;72.07;36.78;;;5.50;79.70;;;;;;5050874;28;20082;-68
2022/03/30 03:56:38;;;;;;;71.05;35.92;;;5.60;79.70;;;;;;5037082;28;20035;-67
2022/03/30 03:59:04;;;;;;;67.65;34.30;;;5.70;79.50;;;;;;5038068;28;20033;-68
2022/03/30 04:01:30;;;;;;;70.68;34.17;;;5.70;79.60;;;;;;5048439;28;20041;-69
2022/03/30 04:03:56;;;;;;;70.97;36.55;;;5.70;79.20;;;;;;5049884;28;20025;-69
2022/03/30 04:06:22;;;;;;;70.32;36.78;;;5.70;79.20;;;;;;5050109;28;20051;-70
2022/03/30 04:08:48;;;;;;;66.57;34.25;;;5.70;79.10;;;;;;5049670;28;20060;-69
2022/03/30 04:11:14;;;;;;;67.55;35.03;;;5.70;79.00;;;;;;5050674;28;20071;-69
2022/03/30 04:13:40;;;;;;;68.32;36.58;;;5.70;79.20;;;;;;5032571;28;20056;-69
2022/03/30 04:16:05;;;;;;;69.25;35.65;;;5.70;79.40;;;;;;5049889;28;20024;-69
2022/03/30 04:18:31;;;;;;;71.18;36.30;;;5.70;79.50;;;;;;5048984;28;20405;-69
2022/03/30 04:20:57;;;;;;;66.13;34.55;;;5.80;79.30;;;;;;5049957;28;20438;-68
2022/03/30 04:23:22;;;;;;;63.42;33.97;;;5.80;79.30;;;;;;5049952;28;20032;-69
2022/03/30 04:25:48;;;;;;;64.90;34.33;;;5.80;79.30;;;;;;5031566;28;20017;-68
2022/03/30 04:28:17;;;;;;;60.90;33.15;;;5.90;79.30;;;;;;5048997;28;20036;-70
2022/03/30 04:30:44;;;;;;;66.15;34.72;;;5.90;79.20;;;;;;5049669;28;20557;-70
2022/03/30 04:33:09;;;;;;;69.18;36.38;;;5.90;79.70;;;;;;5037126;28;20021;-70
2022/03/30 04:35:36;;;;;;;69.75;34.90;;;5.80;79.60;;;;;;5031649;28;20024;-70
2022/03/30 04:38:02;;;;;;;69.57;36.60;;;5.80;79.80;;;;;;5042981;28;20473;-70
2022/03/30 04:40:28;;;;;;;63.58;33.38;;;5.80;79.80;;;;;;5050120;28;20029;-70
2022/03/30 04:42:55;;;;;;;63.28;33.55;;;5.70;79.60;;;;;;5049751;28;20116;-68
2022/03/30 04:45:21;;;;;;;70.55;35.47;;;5.80;79.10;;;;;;5049602;28;20108;-69
2022/03/30 04:47:47;;;;;;;62.88;34.65;;;5.80;79.30;;;;;;5048672;28;20040;-69
2022/03/30 04:50:12;;;;;;;70.47;33.08;;;5.80;79.40;;;;;;5050098;28;20063;-69
2022/03/30 04:52:39;;;;;;;62.60;32.00;;;5.80;79.40;;;;;;5049863;28;20057;-69
2022/03/30 04:55:06;;;;;;;59.67;31.90;;;5.80;79.60;;;;;;5050170;28;20477;-69
2022/03/30 04:57:32;;;;;;;61.65;33.33;;;5.90;79.50;;;;;;5048733;28;20033;-69
2022/03/30 04:59:58;;;;;;;62.45;34.17;;;5.80;79.90;;;;;;5049090;28;20067;-70
2022/03/30 05:02:23;;;;;;;68.07;33.67;;;5.80;80.00;;;;;;5049778;28;20029;-69
2022/03/30 05:04:49;;;;;;;67.50;33.13;;;5.90;80.60;;;;;;5049584;28;20100;-69
2022/03/30 05:07:15;;;;;;;67.43;33.63;;;6.00;80.90;;;;;;5048792;28;20029;-70
2022/03/30 05:09:43;;;;;;;69.47;34.45;;;6.10;80.80;;;;;;5049165;28;20061;-69
2022/03/30 05:12:09;;;;;;;66.65;34.97;;;6.10;81.50;;;;;;5050246;28;20021;-69
2022/03/30 05:14:35;;;;;;;67.20;33.22;;;6.00;82.00;;;;;;5049036;28;20041;-69
2022/03/30 05:17:01;;;;;;;66.80;33.83;;;6.00;82.20;;;;;;5048690;28;20482;-69
2022/03/30 05:19:27;;;;;;;64.85;30.50;;;6.00;82.10;;;;;;5048713;28;20392;-68
2022/03/30 05:21:53;;;;;;;55.97;28.73;;;6.00;79.30;;;;;;5047114;28;20029;-69
2022/03/30 05:24:19;;;;;;;53.53;28.75;;;5.90;79.60;;;;;;5029346;28;20028;-69
2022/03/30 05:26:45;;;;;;;59.53;30.00;;;5.80;78.90;;;;;;5031407;28;20120;-69
2022/03/30 05:29:11;;;;;;;51.30;26.75;;;5.70;79.90;;;;;;5048520;28;20056;-69
2022/03/30 05:31:37;;;;;;;47.60;25.85;;;5.70;80.00;;;;;;5048656;28;20071;-69
2022/03/30 05:34:02;;;;;;;51.50;26.90;;;5.80;80.20;;;;;;5049270;28;20028;-69
2022/03/30 05:36:28;;;;;;;54.08;26.73;;;5.70;80.20;;;;;;5028032;28;20463;-70
2022/03/30 05:38:54;;;;;;;50.03;25.08;;;5.80;80.50;;;;;;5043602;28;20025;-68
2022/03/30 05:41:19;;;;;;;53.53;27.50;;;5.80;80.20;;;;;;5031690;28;20399;-69
2022/03/30 05:43:45;;;;;;;54.67;27.45;;;5.80;80.30;;;;;;5049848;28;20068;-68
2022/03/30 05:46:11;;;;;;;49.28;25.98;;;5.70;79.60;;;;;;5049441;28;20025;-68
2022/03/30 05:48:37;;;;;;;53.00;28.48;;;5.70;80.40;;;;;;5048736;28;20115;-69
2022/03/30 05:51:03;;;;;;;65.10;29.42;;;5.70;80.30;;;;;;5049650;28;20107;-69
2022/03/30 05:53:28;;;;;;;56.05;29.50;;;5.70;80.80;;;;;;5049163;28;20116;-69
2022/03/30 05:55:55;;;;;;;54.33;26.75;;;5.60;80.50;;;;;;5045252;28;20021;-71
2022/03/30 05:58:21;;;;;;;57.95;27.35;;;5.50;80.00;;;;;;5042339;28;20049;-70
2022/03/30 06:00:46;;;;;;;58.00;29.42;;;5.50;80.70;;;;;;5026037;28;20049;-70
2022/03/30 06:03:12;;;;;;;59.00;28.35;;;5.30;80.60;;;;;;5052326;28;20104;-69
2022/03/30 06:05:38;;;;;;;56.80;28.40;;;5.20;80.50;;;;;;5052725;28;20484;-69
2022/03/30 06:08:06;;;;;;;52.30;26.13;;;5.20;80.40;;;;;;5052125;28;20024;-69
2022/03/30 06:10:34;;;;;;;52.13;25.90;;;5.30;80.20;;;;;;5046838;28;20033;-71
2022/03/30 06:12:59;;;;;;;56.95;26.90;;;5.40;81.20;;;;;;5050568;28;20032;-71
2022/03/30 06:15:26;;;;;;;50.05;28.20;;;5.50;81.50;;;;;;5051277;28;20016;-71
2022/03/30 06:17:55;;;;;;;58.10;29.33;;;5.70;81.20;;;;;;5051633;28;20075;-69
2022/03/30 06:20:23;;;;;;;94.30;44.65;;;5.90;80.70;;;;;;5053225;28;20462;-70
2022/03/30 06:22:48;;;;;;;59.75;30.75;;;6.00;80.20;;;;;;5053453;28;20048;-71
2022/03/30 06:25:14;;;;;;;61.05;30.58;;;6.10;79.10;;;;;;5034778;28;20083;-71
2022/03/30 06:27:41;;;;;;;57.80;30.10;;;6.40;79.60;;;;;;5051287;28;20036;-72
2022/03/30 06:30:08;;;;;;;94.97;47.20;;;6.50;78.40;;;;;;5052562;28;20024;-71
2022/03/30 06:32:37;;;;;;;91.40;45.60;;;6.60;77.80;;;;;;5035999;28;20032;-70
2022/03/30 06:35:04;;;;;;;50.95;27.13;;;6.70;76.30;;;;;;5052876;28;20021;-72
2022/03/30 06:37:30;;;;;;;52.67;27.00;;;6.60;76.70;;;;;;5053175;28;20393;-69
2022/03/30 06:39:56;;;;;;;49.85;26.75;;;6.70;76.90;;;;;;5034961;28;20027;-69
2022/03/30 06:42:21;;;;;;;55.00;28.02;;;6.60;76.70;;;;;;5052346;28;20048;-69
2022/03/30 06:44:49;;;;;;;63.38;33.30;;;6.70;76.40;;;;;;5052342;28;20115;-70
2022/03/30 06:47:15;;;;;;;49.65;26.65;;;6.90;76.20;;;;;;5051520;28;20726;-72
2022/03/30 06:49:41;;;;;;;43.55;23.75;;;7.10;76.20;;;;;;5052227;28;20075;-69
2022/03/30 06:52:08;;;;;;;49.47;24.77;;;7.20;75.10;;;;;;5052045;28;20025;-70
2022/03/30 06:54:34;;;;;;;44.80;23.23;;;7.30;74.90;;;;;;5052092;28;20025;-69
2022/03/30 06:57:01;;;;;;;48.60;25.20;;;7.40;74.80;;;;;;5052276;28;20029;-69
2022/03/30 06:59:30;;;;;;;45.47;23.27;;;7.20;73.80;;;;;;5052044;28;20079;-70
2022/03/30 07:01:56;;;;;;;44.70;23.52;;;7.30;72.70;;;;;;5034172;28;20024;-70
2022/03/30 07:04:22;;;;;;;42.97;21.67;;;7.20;73.40;;;;;;5051822;28;20033;-70
2022/03/30 07:12:17;;;;;;;41.33;20.77;;;6.80;73.60;;;;;;5037159;28;20095;-70
2022/03/30 07:14:42;;;;;;;44.28;21.80;;;6.90;74.00;;;;;;5050547;28;20029;-70
2022/03/30 07:17:08;;;;;;;41.30;22.17;;;6.90;73.70;;;;;;5051237;28;20036;-70
2022/03/30 07:19:34;;;;;;;45.67;22.70;;;6.80;73.00;;;;;;5051089;28;20021;-70
2022/03/30 07:22:04;;;;;;;41.97;20.98;;;7.00;73.00;;;;;;5051719;28;20508;-73
2022/03/30 07:24:29;;;;;;;46.58;22.15;;;7.00;72.70;;;;;;5039308;28;20017;-73
2022/03/30 07:26:55;;;;;;;41.30;20.05;;;7.00;73.60;;;;;;5051754;28;20111;-70
2022/03/30 07:29:20;;;;;;;50.72;23.65;;;7.20;72.80;;;;;;5050726;28;20108;-70
2022/03/30 07:31:46;;;;;;;41.38;20.88;;;7.30;71.90;;;;;;5051221;28;20061;-71
2022/03/30 07:34:12;;;;;;;41.25;20.92;;;7.50;72.50;;;;;;5051126;28;20013;-70
2022/03/30 07:36:38;;;;;;;46.50;23.10;;;7.70;72.40;;;;;;5050966;28;20025;-70
2022/03/30 07:39:04;;;;;;;46.00;26.45;;;7.80;71.60;;;;;;5050669;28;20044;-69
2022/03/30 07:41:29;;;;;;;42.28;23.42;;;7.70;71.90;;;;;;5051343;28;20029;-70
2022/03/30 07:43:55;;;;;;;44.20;23.90;;;7.80;71.90;;;;;;5033433;28;20036;-69
2022/03/30 07:46:20;;;;;;;46.58;22.52;;;7.90;71.40;;;;;;5033395;28;20020;-71
2022/03/30 07:48:46;;;;;;;46.38;21.77;;;7.80;71.60;;;;;;5050045;28;20078;-69
2022/03/30 07:51:12;;;;;;;44.83;22.83;;;7.80;72.30;;;;;;5051033;28;20028;-70
2022/03/30 07:53:38;;;;;;;35.58;21.05;;;8.00;72.10;;;;;;5051232;28;20047;-69
2022/03/30 07:56:04;;;;;;;41.72;22.17;;;8.10;71.80;;;;;;5051544;28;20020;-69
2022/03/30 07:58:30;;;;;;;40.80;23.58;;;8.30;70.80;;;;;;5050351;28;20024;-68
2022/03/30 08:00:56;;;;;;;48.30;25.10;;;8.30;70.60;;;;;;5033515;28;20021;-70
2022/03/30 08:03:22;;;;;;;45.88;24.25;;;8.20;71.90;;;;;;5050819;28;20028;-70
2022/03/30 08:05:47;;;;;;;41.88;23.33;;;7.90;71.80;;;;;;5050975;28;20036;-71
2022/03/30 08:08:13;;;;;;;39.55;21.67;;;8.00;73.50;;;;;;5032311;28;20100;-72
2022/03/30 08:10:39;;;;;;;43.38;22.77;;;8.00;70.60;;;;;;5033081;28;20429;-71
2022/03/30 08:13:05;;;;;;;46.92;22.88;;;7.90;71.60;;;;;;5050798;28;20029;-73
2022/03/30 08:15:32;;;;;;;42.42;22.05;;;8.00;71.50;;;;;;5050256;28;20071;-72
2022/03/30 08:17:58;;;;;;;41.67;22.92;;;7.90;71.30;;;;;;5031508;28;20028;-70
2022/03/30 08:23:09;;;;;;;48.33;23.45;;;8.00;70.60;;;;;;5050732;28;20036;-71
2022/03/30 08:25:35;;;;;;;44.53;22.98;;;8.00;71.60;;;;;;5032109;28;20534;-71
2022/03/30 08:28:01;;;;;;;44.55;22.42;;;7.80;72.80;;;;;;5049767;28;20021;-70
2022/03/30 08:30:27;;;;;;;49.95;23.58;;;7.60;72.90;;;;;;5032728;28;20048;-70
2022/03/30 08:32:53;;;;;;;43.58;21.63;;;7.70;72.80;;;;;;5040195;28;20029;-69
2022/03/30 08:35:19;;;;;;;38.75;22.25;;;7.90;74.30;;;;;;5050061;28;20024;-69
2022/03/30 08:37:45;;;;;;;42.67;22.27;;;7.60;72.40;;;;;;5049466;28;20037;-69
2022/03/30 08:40:10;;;;;;;40.92;21.55;;;7.50;73.30;;;;;;5050737;28;20017;-72
2022/03/30 08:42:38;;;;;;;41.10;22.63;;;7.70;73.20;;;;;;5050891;28;20369;-69
2022/03/30 08:45:06;;;;;;;44.75;22.73;;;7.60;73.30;;;;;;5048018;28;20029;-69
2022/03/30 08:47:32;;;;;;;41.22;20.58;;;7.80;75.30;;;;;;5031135;28;20029;-69
2022/03/30 08:49:58;;;;;;;64.30;27.27;;;7.50;73.30;;;;;;5049936;28;20036;-69
2022/03/30 08:52:24;;;;;;;59.90;30.58;;;7.10;76.60;;;;;;5050051;28;20033;-69
2022/03/30 08:54:50;;;;;;;48.10;22.15;;;7.10;78.20;;;;;;5050059;28;20028;-70
2022/03/30 08:57:17;;;;;;;51.72;23.10;;;7.20;77.60;;;;;;5031642;28;20079;-68
2022/03/30 09:00:05;;;;;;;46.10;23.30;;;7.00;77.30;;;;;;5049966;28;20389;-70
2022/03/30 09:02:34;;;;;;;43.33;21.85;;;7.00;76.70;;;;;;5050329;28;20032;-70
2022/03/30 09:05:21;;;;;;;42.35;21.75;;;7.00;77.70;;;;;;5050079;28;20025;-70
2022/03/30 09:07:49;;;;;;;39.08;21.50;;;6.90;76.10;;;;;;5049583;28;20025;-71
2022/03/30 09:10:18;;;;;;;38.70;21.40;;;7.00;77.50;;;;;;5050282;28;20032;-70
2022/03/30 09:12:45;;;;;;;44.53;21.35;;;7.20;77.40;;;;;;5048966;28;20025;-70
2022/03/30 09:15:12;;;;;;;47.47;22.83;;;7.50;76.50;;;;;;5030993;28;20020;-71
2022/03/30 09:17:38;;;;;;;49.53;23.08;;;7.60;75.30;;;;;;5049267;28;20519;-68
2022/03/30 09:20:06;;;;;;;53.92;26.90;;;7.50;75.20;;;;;;5031960;28;20518;-69
2022/03/30 09:22:33;;;;;;;48.05;24.60;;;7.50;75.90;;;;;;5033081;28;20017;-69
2022/03/30 09:25:00;;;;;;;45.05;22.85;;;7.40;77.90;;;;;;5049752;28;20083;-70
2022/03/30 09:27:26;;;;;;;51.15;23.23;;;7.60;78.10;;;;;;5049343;28;20033;-69
2022/03/30 09:29:52;;;;;;;43.67;23.60;;;7.40;76.40;;;;;;5050016;28;20044;-69
2022/03/30 09:32:18;;;;;;;54.42;22.25;;;7.40;76.90;;;;;;5049957;28;20021;-71
2022/03/30 09:34:54;;;;;;;48.78;24.08;;;7.00;75.80;;;;;;5050039;28;20484;-72
2022/03/30 09:37:20;;;;;;;55.15;26.48;;;6.80;78.00;;;;;;5032727;28;20033;-70
2022/03/30 09:39:49;;;;;;;62.80;29.40;;;6.70;80.00;;;;;;5053791;28;20030;-71
2022/03/30 09:42:16;;;;;;;56.90;27.50;;;6.60;80.10;;;;;;5035843;28;20017;-71
2022/03/30 09:44:48;;;;;;;60.70;29.05;;;6.60;81.40;;;;;;5052334;28;20035;-72
2022/03/30 09:47:15;;;;;;;66.47;31.02;;;6.50;82.00;;;;;;5054110;28;20511;-72
2022/03/30 09:49:44;;;;;;;55.17;28.27;;;6.50;82.90;;;;;;5054420;28;20124;-72
2022/03/30 09:52:12;;;;;;;63.17;29.20;;;6.40;81.70;;;;;;5055352;28;20028;-73
2022/03/30 09:54:43;;;;;;;70.70;30.90;;;6.40;81.90;;;;;;5055666;28;20048;-73
2022/03/30 09:57:10;;;;;;;;;;;6.30;82.50;;;;;;5054947;28;20028;-73
2022/03/30 09:59:55;;;;;;;70.85;29.75;;;6.20;83.00;;;;;;5054182;28;19983;-74
2022/03/30 10:02:20;;;;;;;64.30;30.30;;;6.20;83.30;;;;;;5054522;28;20032;-72
2022/03/30 10:04:47;;;;;;;65.57;31.63;;;6.10;83.10;;;;;;5054278;28;20029;-72
2022/03/30 10:07:14;;;;;;;79.78;34.17;;;6.20;83.90;;;;;;5054159;28;20051;-70
2022/03/30 10:09:40;;;;;;;78.38;36.42;;;6.20;85.40;;;;;;5054038;28;20033;-69
2022/03/30 10:12:07;;;;;;;76.68;32.08;;;6.40;85.90;;;;;;5036089;28;20043;-69
2022/03/30 10:14:34;;;;;;;60.38;28.73;;;6.40;85.30;;;;;;5053876;28;20020;-69
2022/03/30 10:17:02;;;;;;;60.10;29.17;;;6.40;84.70;;;;;;5035948;28;20025;-70
2022/03/30 10:19:28;;;;;;;66.32;29.10;;;6.30;84.10;;;;;;5035980;28;20021;-72
2022/03/30 10:22:19;;;;;;;68.53;30.88;;;6.20;84.00;;;;;;5053677;28;20507;-71
2022/03/30 10:25:09;;;;;;;57.78;28.23;;;6.30;85.20;;;;;;5050139;28;20033;-72
2022/03/30 10:27:54;;;;;;;64.00;29.75;;;6.30;83.40;;;;;;5035246;28;20582;-69
2022/03/30 10:30:31;;;;;;;65.00;29.80;;;6.30;83.70;;;;;;5053560;28;20017;-72
2022/03/30 10:33:02;;;;;;;59.70;29.40;;;6.30;84.50;;;;;;5053839;28;20018;-69
2022/03/30 10:35:42;;;;;;;70.97;30.85;;;6.30;85.20;;;;;;5053954;28;20029;-74
2022/03/30 10:38:08;;;;;;;63.70;27.60;;;6.30;86.50;;;;;;5053715;28;20100;-70
2022/03/30 10:40:35;;;;;;;57.30;28.45;;;6.30;85.80;;;;;;5053473;28;20391;-69
2022/03/30 10:43:04;;;;;;;52.92;23.55;;;6.20;85.20;;;;;;5053711;28;20025;-69
2022/03/30 10:45:38;;;;;;;53.78;23.60;;;6.10;84.50;;;;;;5035325;28;20040;-71
2022/03/30 10:48:18;;;;;;;51.47;23.33;;;6.10;84.70;;;;;;5053229;28;20028;-71
2022/03/30 10:50:54;;;;;;;52.90;23.63;;;6.00;85.00;;;;;;5035559;28;20033;-71
2022/03/30 10:53:33;;;;;;;54.00;22.27;;;6.00;85.70;;;;;;5053865;28;20029;-70
2022/03/30 10:56:21;;;;;;;44.88;21.30;;;5.90;84.80;;;;;;5053097;28;20013;-70
2022/03/30 10:58:55;;;;;;;48.15;22.13;;;6.00;85.60;;;;;;5037221;28;20037;-71
2022/03/30 11:01:28;;;;;;;53.50;22.75;;;6.00;86.30;;;;;;5053477;28;20036;-75
2022/03/30 11:04:17;;;;;;;64.18;23.02;;;6.00;86.20;;;;;;5053332;28;20466;-72
2022/03/30 11:07:06;;;;;;;56.00;23.38;;;6.00;87.00;;;;;;5035418;28;20025;-74
2022/03/30 11:09:35;;;;;;;50.97;23.02;;;6.00;87.00;;;;;;5035288;28;20063;-75
2022/03/30 11:12:09;;;;;;;97.70;39.10;;;6.10;86.90;;;;;;5053743;28;20484;-74
2022/03/30 11:14:41;;;;;;;53.83;24.85;;;6.10;86.90;;;;;;5053675;28;20031;-73
2022/03/30 11:17:13;;;;;;;57.60;25.15;;;6.20;87.90;;;;;;5052554;28;20043;-74
2022/03/30 11:19:47;;;;;;;;;;;6.10;87.70;;;;;;5053650;28;20028;-73
2022/03/30 11:22:23;;;;;;;81.57;33.17;;;6.10;87.80;;;;;;5053482;28;19904;-73
2022/03/30 11:25:09;;;;;;;89.57;39.78;;;6.10;88.50;;;;;;5035711;28;20025;-74
2022/03/30 11:27:35;;;;;;;60.22;25.67;;;6.10;88.30;;;;;;5053450;28;20025;-72
2022/03/30 11:30:15;;;;;;;52.03;22.27;;;6.20;88.50;;;;;;5054945;28;20037;-72
2022/03/30 11:32:44;;;;;;;45.80;20.17;;;6.10;88.10;;;;;;5054894;28;20040;-72
2022/03/30 11:35:17;;;;;;;37.65;16.55;;;6.10;87.90;;;;;;5053391;28;20492;-73
2022/03/30 11:37:48;;;;;;;48.35;19.30;;;6.00;86.00;;;;;;5052406;28;20392;-72
2022/03/30 11:40:18;;;;;;;44.20;19.13;;;5.90;87.40;;;;;;5052710;28;20028;-73
2022/03/30 11:42:45;;;;;;;45.40;19.73;;;5.90;88.60;;;;;;5034892;28;20040;-74
2022/03/30 11:45:14;;;;;;;51.25;21.30;;;5.90;88.00;;;;;;5052747;28;20388;-73
2022/03/30 11:47:45;;;;;;;57.00;22.52;;;5.90;89.00;;;;;;5034733;28;20377;-73
2022/03/30 11:50:24;;;;;;;49.58;20.65;;;6.00;90.00;;;;;;5052642;28;20063;-74
2022/03/30 11:52:56;;;;;;;46.63;19.73;;;6.10;90.00;;;;;;5052644;28;20175;-73
2022/03/30 11:55:23;;;;;;;61.95;25.58;;;6.20;89.10;;;;;;5052195;28;20089;-73
2022/03/30 11:57:51;;;;;;;47.13;19.20;;;6.20;88.40;;;;;;5051830;28;20044;-71
2022/03/30 12:00:17;;;;;;;41.30;17.75;;;6.30;88.40;;;;;;5051372;28;20076;-73
2022/03/30 12:02:43;;;;;;;50.72;21.23;;;6.40;87.50;;;;;;5052306;28;20029;-72
2022/03/30 12:05:10;;;;;;;42.13;19.55;;;6.30;87.00;;;;;;5034190;28;20033;-75
2022/03/30 12:07:37;;;;;;;51.65;21.65;;;6.20;86.90;;;;;;5052486;28;20568;-70
2022/03/30 12:10:12;;;;;;;54.63;22.10;;;6.10;88.00;;;;;;5028473;28;20396;-71
2022/03/30 12:12:40;;;;;;;48.50;21.35;;;6.20;88.20;;;;;;5048321;28;20028;-70
2022/03/30 12:15:07;;;;;;;62.00;24.50;;;6.20;88.10;;;;;;5035300;28;20051;-71
2022/03/30 12:17:35;;;;;;;53.85;24.45;;;6.30;89.10;;;;;;5045966;28;20028;-72
2022/03/30 12:20:02;;;;;;;50.25;21.35;;;6.40;89.10;;;;;;5050503;28;20016;-70
2022/03/30 12:22:29;;;;;;;49.83;22.90;;;6.30;88.70;;;;;;5049900;28;20032;-69
2022/03/30 12:24:55;;;;;;;45.92;19.45;;;6.20;88.70;;;;;;5050170;28;20515;-71
2022/03/30 12:27:21;;;;;;;50.78;21.33;;;6.10;88.00;;;;;;5049112;28;20096;-69
2022/03/30 12:29:47;;;;;;;51.95;21.90;;;6.00;89.20;;;;;;5050414;28;20100;-70
2022/03/30 12:32:16;;;;;;;48.42;21.48;;;6.10;90.10;;;;;;5050420;28;20025;-71
2022/03/30 12:34:46;;;;;;;48.13;17.85;;;6.20;90.40;;;;;;5050603;28;20067;-71
2022/03/30 12:37:21;;;;;;;45.97;17.20;;;6.10;89.20;;;;;;5065108;23;20041;-74
2022/03/30 12:39:47;;;;;;;50.10;19.83;;;6.00;88.30;;;;;;5049883;28;20396;-73
2022/03/30 12:42:23;;;;;;;52.50;19.25;;;5.90;89.10;;;;;;5049872;28;20020;-74
2022/03/30 12:44:52;;;;;;;45.70;18.85;;;5.80;89.60;;;;;;5050493;28;20488;-71
2022/03/30 12:47:36;;;;;;;38.88;17.52;;;5.80;90.00;;;;;;5049517;28;20066;-73
2022/03/30 12:50:12;;;;;;;35.47;16.52;;;5.60;88.70;;;;;;5050201;28;20021;-72
2022/03/30 12:52:42;;;;;;;38.67;17.75;;;5.60;88.70;;;;;;5050539;28;20032;-71
2022/03/30 12:55:24;;;;;;;39.92;16.42;;;5.50;89.30;;;;;;5048853;28;20025;-72